sensor_id;sensor_type;location;lat;lon;timestamp;P1;durP1;ratioP1;P2;durP2;ratioP2
68273;SDS011;55104;47.356;19.448;2023-07-20T00:01:43;8.00;;;2.08;;
68273;SDS011;55104;47.356;19.448;2023-07-20T00:04:46;8.45;;;1.83;;
68273;SDS011;55104;47.356;19.448;2023-07-20T00:07:48;5.47;;;1.80;;
68273;SDS011;55104;47.356;19.448;2023-07-20T00:10:53;9.00;;;2.13;;
68273;SDS011;55104;47.356;19.448;2023-07-20T00:13:55;6.78;;;2.10;;
68273;SDS011;55104;47.356;19.448;2023-07-20T00:16:57;6.72;;;2.45;;
68273;SDS011;55104;47.356;19.448;2023-07-20T00:20:00;7.60;;;1.90;;
68273;SDS011;55104;47.356;19.448;2023-07-20T00:23:02;6.90;;;2.20;;
68273;SDS011;55104;47.356;19.448;2023-07-20T00:26:04;8.53;;;2.57;;
68273;SDS011;55104;47.356;19.448;2023-07-20T00:29:06;7.32;;;2.60;;
68273;SDS011;55104;47.356;19.448;2023-07-20T00:32:08;7.53;;;2.75;;
68273;SDS011;55104;47.356;19.448;2023-07-20T00:35:10;10.30;;;3.17;;
68273;SDS011;55104;47.356;19.448;2023-07-20T00:38:13;7.80;;;2.97;;
68273;SDS011;55104;47.356;19.448;2023-07-20T00:41:15;9.20;;;2.47;;
68273;SDS011;55104;47.356;19.448;2023-07-20T00:44:17;8.45;;;2.78;;
68273;SDS011;55104;47.356;19.448;2023-07-20T00:47:19;7.82;;;2.35;;
68273;SDS011;55104;47.356;19.448;2023-07-20T00:50:22;9.07;;;2.55;;
68273;SDS011;55104;47.356;19.448;2023-07-20T00:53:24;9.53;;;2.47;;
68273;SDS011;55104;47.356;19.448;2023-07-20T00:56:27;8.80;;;2.33;;
68273;SDS011;55104;47.356;19.448;2023-07-20T00:59:30;7.75;;;2.40;;
68273;SDS011;55104;47.356;19.448;2023-07-20T01:02:32;7.35;;;2.60;;
68273;SDS011;55104;47.356;19.448;2023-07-20T01:05:54;9.43;;;2.67;;
68273;SDS011;55104;47.356;19.448;2023-07-20T01:12:17;8.50;;;2.67;;
68273;SDS011;55104;47.356;19.448;2023-07-20T01:15:24;10.77;;;2.55;;
68273;SDS011;55104;47.356;19.448;2023-07-20T01:18:26;7.35;;;2.75;;
68273;SDS011;55104;47.356;19.448;2023-07-20T01:21:34;12.60;;;3.05;;
68273;SDS011;55104;47.356;19.448;2023-07-20T01:31:32;6.55;;;2.30;;
68273;SDS011;55104;47.356;19.448;2023-07-20T01:34:36;7.22;;;2.50;;
68273;SDS011;55104;47.356;19.448;2023-07-20T01:37:40;9.43;;;2.85;;
68273;SDS011;55104;47.356;19.448;2023-07-20T01:40:44;6.97;;;2.60;;
68273;SDS011;55104;47.356;19.448;2023-07-20T01:43:47;8.47;;;2.27;;
68273;SDS011;55104;47.356;19.448;2023-07-20T01:46:50;8.55;;;2.20;;
68273;SDS011;55104;47.356;19.448;2023-07-20T01:49:52;7.45;;;2.63;;
68273;SDS011;55104;47.356;19.448;2023-07-20T01:52:54;6.82;;;2.17;;
68273;SDS011;55104;47.356;19.448;2023-07-20T01:55:56;6.80;;;2.47;;
68273;SDS011;55104;47.356;19.448;2023-07-20T01:58:59;7.80;;;2.40;;
68273;SDS011;55104;47.356;19.448;2023-07-20T02:02:02;6.95;;;2.58;;
68273;SDS011;55104;47.356;19.448;2023-07-20T02:05:04;11.20;;;3.10;;
68273;SDS011;55104;47.356;19.448;2023-07-20T02:08:07;9.23;;;2.45;;
68273;SDS011;55104;47.356;19.448;2023-07-20T02:11:09;9.00;;;2.80;;
68273;SDS011;55104;47.356;19.448;2023-07-20T02:14:11;7.37;;;2.20;;
68273;SDS011;55104;47.356;19.448;2023-07-20T02:17:13;9.48;;;2.42;;
68273;SDS011;55104;47.356;19.448;2023-07-20T02:20:15;7.53;;;2.42;;
68273;SDS011;55104;47.356;19.448;2023-07-20T02:23:17;7.90;;;2.78;;
68273;SDS011;55104;47.356;19.448;2023-07-20T02:26:20;8.20;;;2.30;;
68273;SDS011;55104;47.356;19.448;2023-07-20T02:29:22;7.00;;;2.60;;
68273;SDS011;55104;47.356;19.448;2023-07-20T02:32:25;8.40;;;2.45;;
68273;SDS011;55104;47.356;19.448;2023-07-20T02:35:27;7.53;;;2.35;;
68273;SDS011;55104;47.356;19.448;2023-07-20T02:38:29;9.43;;;2.50;;
68273;SDS011;55104;47.356;19.448;2023-07-20T02:41:32;8.77;;;2.23;;
68273;SDS011;55104;47.356;19.448;2023-07-20T02:44:35;7.33;;;2.20;;
68273;SDS011;55104;47.356;19.448;2023-07-20T02:47:37;8.35;;;2.33;;
68273;SDS011;55104;47.356;19.448;2023-07-20T02:50:39;11.48;;;2.28;;
68273;SDS011;55104;47.356;19.448;2023-07-20T02:53:41;8.52;;;3.17;;
68273;SDS011;55104;47.356;19.448;2023-07-20T02:56:43;7.37;;;2.53;;
68273;SDS011;55104;47.356;19.448;2023-07-20T02:59:46;9.80;;;2.90;;
68273;SDS011;55104;47.356;19.448;2023-07-20T03:02:50;10.48;;;3.00;;
68273;SDS011;55104;47.356;19.448;2023-07-20T03:05:57;8.75;;;2.47;;
68273;SDS011;55104;47.356;19.448;2023-07-20T03:09:01;8.68;;;2.95;;
68273;SDS011;55104;47.356;19.448;2023-07-20T03:12:03;8.07;;;2.57;;
68273;SDS011;55104;47.356;19.448;2023-07-20T03:15:06;9.63;;;2.80;;
68273;SDS011;55104;47.356;19.448;2023-07-20T03:18:09;8.88;;;2.90;;
68273;SDS011;55104;47.356;19.448;2023-07-20T03:21:12;9.55;;;2.90;;
68273;SDS011;55104;47.356;19.448;2023-07-20T03:24:14;10.90;;;2.90;;
68273;SDS011;55104;47.356;19.448;2023-07-20T03:27:16;9.93;;;2.90;;
68273;SDS011;55104;47.356;19.448;2023-07-20T03:30:18;10.23;;;2.63;;
68273;SDS011;55104;47.356;19.448;2023-07-20T03:33:28;11.27;;;3.13;;
68273;SDS011;55104;47.356;19.448;2023-07-20T03:36:32;7.85;;;2.58;;
68273;SDS011;55104;47.356;19.448;2023-07-20T03:39:34;8.18;;;3.28;;
68273;SDS011;55104;47.356;19.448;2023-07-20T03:42:38;7.03;;;2.33;;
68273;SDS011;55104;47.356;19.448;2023-07-20T03:45:40;8.93;;;2.53;;
68273;SDS011;55104;47.356;19.448;2023-07-20T03:48:42;8.25;;;2.40;;
68273;SDS011;55104;47.356;19.448;2023-07-20T03:51:44;10.00;;;2.80;;
68273;SDS011;55104;47.356;19.448;2023-07-20T03:54:46;9.77;;;2.75;;
68273;SDS011;55104;47.356;19.448;2023-07-20T03:57:48;10.47;;;3.27;;
68273;SDS011;55104;47.356;19.448;2023-07-20T04:00:52;13.63;;;3.93;;
68273;SDS011;55104;47.356;19.448;2023-07-20T04:03:54;8.88;;;2.92;;
68273;SDS011;55104;47.356;19.448;2023-07-20T04:06:57;9.00;;;3.08;;
68273;SDS011;55104;47.356;19.448;2023-07-20T04:09:59;10.48;;;3.90;;
68273;SDS011;55104;47.356;19.448;2023-07-20T04:13:02;8.73;;;2.40;;
68273;SDS011;55104;47.356;19.448;2023-07-20T04:16:05;7.90;;;2.87;;
68273;SDS011;55104;47.356;19.448;2023-07-20T04:19:07;9.07;;;3.05;;
68273;SDS011;55104;47.356;19.448;2023-07-20T04:22:10;10.77;;;3.38;;
68273;SDS011;55104;47.356;19.448;2023-07-20T04:25:12;8.85;;;2.83;;
68273;SDS011;55104;47.356;19.448;2023-07-20T04:28:15;8.53;;;3.23;;
68273;SDS011;55104;47.356;19.448;2023-07-20T04:31:21;8.77;;;2.67;;
68273;SDS011;55104;47.356;19.448;2023-07-20T04:34:23;8.50;;;2.78;;
68273;SDS011;55104;47.356;19.448;2023-07-20T04:37:25;10.05;;;2.75;;
68273;SDS011;55104;47.356;19.448;2023-07-20T04:40:27;7.78;;;2.78;;
68273;SDS011;55104;47.356;19.448;2023-07-20T04:43:29;13.40;;;2.93;;
68273;SDS011;55104;47.356;19.448;2023-07-20T04:46:31;8.63;;;2.30;;
68273;SDS011;55104;47.356;19.448;2023-07-20T04:49:36;8.52;;;3.05;;
68273;SDS011;55104;47.356;19.448;2023-07-20T04:52:38;9.45;;;2.92;;
68273;SDS011;55104;47.356;19.448;2023-07-20T04:55:49;9.75;;;3.25;;
68273;SDS011;55104;47.356;19.448;2023-07-20T04:58:54;8.37;;;2.90;;
68273;SDS011;55104;47.356;19.448;2023-07-20T05:01:56;9.33;;;3.03;;
68273;SDS011;55104;47.356;19.448;2023-07-20T05:04:58;8.93;;;2.92;;
68273;SDS011;55104;47.356;19.448;2023-07-20T05:08:00;9.77;;;2.83;;
68273;SDS011;55104;47.356;19.448;2023-07-20T05:11:02;9.85;;;3.25;;
68273;SDS011;55104;47.356;19.448;2023-07-20T05:14:04;8.60;;;2.83;;
68273;SDS011;55104;47.356;19.448;2023-07-20T05:17:06;10.60;;;2.87;;
68273;SDS011;55104;47.356;19.448;2023-07-20T05:20:08;9.85;;;3.72;;
68273;SDS011;55104;47.356;19.448;2023-07-20T05:23:18;10.75;;;3.17;;
68273;SDS011;55104;47.356;19.448;2023-07-20T05:26:24;6.85;;;2.70;;
68273;SDS011;55104;47.356;19.448;2023-07-20T05:29:26;10.47;;;2.90;;
68273;SDS011;55104;47.356;19.448;2023-07-20T05:32:28;8.03;;;2.67;;
68273;SDS011;55104;47.356;19.448;2023-07-20T05:35:30;11.98;;;2.80;;
68273;SDS011;55104;47.356;19.448;2023-07-20T05:38:32;8.18;;;2.75;;
68273;SDS011;55104;47.356;19.448;2023-07-20T05:41:34;8.15;;;2.80;;
68273;SDS011;55104;47.356;19.448;2023-07-20T05:44:36;6.93;;;2.33;;
68273;SDS011;55104;47.356;19.448;2023-07-20T05:47:42;7.67;;;2.90;;
68273;SDS011;55104;47.356;19.448;2023-07-20T05:50:44;8.88;;;2.92;;
68273;SDS011;55104;47.356;19.448;2023-07-20T05:53:46;7.28;;;2.15;;
68273;SDS011;55104;47.356;19.448;2023-07-20T05:56:48;7.53;;;2.35;;
68273;SDS011;55104;47.356;19.448;2023-07-20T05:59:51;6.73;;;2.50;;
68273;SDS011;55104;47.356;19.448;2023-07-20T06:02:53;8.03;;;2.70;;
68273;SDS011;55104;47.356;19.448;2023-07-20T06:06:00;7.07;;;2.13;;
68273;SDS011;55104;47.356;19.448;2023-07-20T06:09:13;7.72;;;2.58;;
68273;SDS011;55104;47.356;19.448;2023-07-20T06:12:16;7.72;;;2.70;;
68273;SDS011;55104;47.356;19.448;2023-07-20T06:15:28;8.17;;;2.23;;
68273;SDS011;55104;47.356;19.448;2023-07-20T06:18:33;8.00;;;2.73;;
68273;SDS011;55104;47.356;19.448;2023-07-20T06:21:35;7.25;;;2.13;;
68273;SDS011;55104;47.356;19.448;2023-07-20T06:24:37;9.55;;;2.50;;
68273;SDS011;55104;47.356;19.448;2023-07-20T06:27:39;5.85;;;2.05;;
68273;SDS011;55104;47.356;19.448;2023-07-20T06:30:41;7.00;;;2.10;;
68273;SDS011;55104;47.356;19.448;2023-07-20T06:33:43;8.97;;;2.83;;
68273;SDS011;55104;47.356;19.448;2023-07-20T06:36:45;6.53;;;2.30;;
68273;SDS011;55104;47.356;19.448;2023-07-20T06:39:47;6.25;;;1.90;;
68273;SDS011;55104;47.356;19.448;2023-07-20T06:42:52;8.35;;;2.30;;
68273;SDS011;55104;47.356;19.448;2023-07-20T06:45:58;7.67;;;2.40;;
68273;SDS011;55104;47.356;19.448;2023-07-20T06:49:01;7.07;;;2.33;;
68273;SDS011;55104;47.356;19.448;2023-07-20T06:52:06;7.18;;;2.40;;
68273;SDS011;55104;47.356;19.448;2023-07-20T06:55:09;6.57;;;2.22;;
68273;SDS011;55104;47.356;19.448;2023-07-20T06:58:11;7.80;;;2.08;;
68273;SDS011;55104;47.356;19.448;2023-07-20T07:01:14;7.03;;;2.53;;
68273;SDS011;55104;47.356;19.448;2023-07-20T07:04:16;5.70;;;2.00;;
68273;SDS011;55104;47.356;19.448;2023-07-20T07:07:19;7.13;;;2.42;;
68273;SDS011;55104;47.356;19.448;2023-07-20T07:10:24;6.90;;;2.38;;
68273;SDS011;55104;47.356;19.448;2023-07-20T07:13:26;6.07;;;2.17;;
68273;SDS011;55104;47.356;19.448;2023-07-20T07:16:28;7.37;;;2.43;;
68273;SDS011;55104;47.356;19.448;2023-07-20T07:19:31;5.97;;;2.07;;
68273;SDS011;55104;47.356;19.448;2023-07-20T07:22:33;6.65;;;1.98;;
68273;SDS011;55104;47.356;19.448;2023-07-20T07:25:35;6.70;;;2.20;;
68273;SDS011;55104;47.356;19.448;2023-07-20T07:28:37;9.85;;;2.10;;
68273;SDS011;55104;47.356;19.448;2023-07-20T07:31:41;9.10;;;2.27;;
68273;SDS011;55104;47.356;19.448;2023-07-20T07:34:43;8.73;;;2.30;;
68273;SDS011;55104;47.356;19.448;2023-07-20T07:37:48;5.65;;;1.95;;
68273;SDS011;55104;47.356;19.448;2023-07-20T07:40:53;10.23;;;2.25;;
68273;SDS011;55104;47.356;19.448;2023-07-20T07:43:55;6.43;;;2.38;;
68273;SDS011;55104;47.356;19.448;2023-07-20T07:46:57;7.37;;;2.20;;
68273;SDS011;55104;47.356;19.448;2023-07-20T07:50:00;6.60;;;2.03;;
68273;SDS011;55104;47.356;19.448;2023-07-20T07:53:02;6.22;;;2.20;;
68273;SDS011;55104;47.356;19.448;2023-07-20T07:56:06;8.32;;;2.28;;
68273;SDS011;55104;47.356;19.448;2023-07-20T07:59:09;6.88;;;2.47;;
68273;SDS011;55104;47.356;19.448;2023-07-20T08:02:11;6.03;;;2.10;;
68273;SDS011;55104;47.356;19.448;2023-07-20T08:05:13;7.87;;;1.93;;
68273;SDS011;55104;47.356;19.448;2023-07-20T08:08:15;6.53;;;2.30;;
68273;SDS011;55104;47.356;19.448;2023-07-20T08:11:19;6.07;;;2.35;;
68273;SDS011;55104;47.356;19.448;2023-07-20T08:14:21;5.90;;;1.80;;
68273;SDS011;55104;47.356;19.448;2023-07-20T08:17:23;6.73;;;1.87;;
68273;SDS011;55104;47.356;19.448;2023-07-20T08:20:26;5.13;;;2.00;;
68273;SDS011;55104;47.356;19.448;2023-07-20T08:23:28;5.57;;;1.77;;
68273;SDS011;55104;47.356;19.448;2023-07-20T08:26:30;6.75;;;1.95;;
68273;SDS011;55104;47.356;19.448;2023-07-20T08:29:33;6.38;;;1.88;;
68273;SDS011;55104;47.356;19.448;2023-07-20T08:32:35;8.67;;;2.10;;
68273;SDS011;55104;47.356;19.448;2023-07-20T08:35:37;5.60;;;1.90;;
68273;SDS011;55104;47.356;19.448;2023-07-20T08:38:39;5.03;;;1.63;;
68273;SDS011;55104;47.356;19.448;2023-07-20T08:41:42;4.95;;;1.80;;
68273;SDS011;55104;47.356;19.448;2023-07-20T08:44:45;8.30;;;2.28;;
68273;SDS011;55104;47.356;19.448;2023-07-20T08:47:50;7.73;;;2.23;;
68273;SDS011;55104;47.356;19.448;2023-07-20T08:50:52;5.27;;;1.57;;
68273;SDS011;55104;47.356;19.448;2023-07-20T08:53:58;4.95;;;1.63;;
68273;SDS011;55104;47.356;19.448;2023-07-20T08:57:01;7.40;;;1.70;;
68273;SDS011;55104;47.356;19.448;2023-07-20T09:00:05;8.10;;;1.98;;
68273;SDS011;55104;47.356;19.448;2023-07-20T09:03:13;6.80;;;1.90;;
68273;SDS011;55104;47.356;19.448;2023-07-20T09:06:17;5.37;;;1.80;;
68273;SDS011;55104;47.356;19.448;2023-07-20T09:09:19;6.13;;;1.90;;
68273;SDS011;55104;47.356;19.448;2023-07-20T09:12:22;5.55;;;2.10;;
68273;SDS011;55104;47.356;19.448;2023-07-20T09:15:25;5.65;;;1.98;;
68273;SDS011;55104;47.356;19.448;2023-07-20T09:18:27;8.70;;;2.50;;
68273;SDS011;55104;47.356;19.448;2023-07-20T09:21:30;4.73;;;1.83;;
68273;SDS011;55104;47.356;19.448;2023-07-20T09:24:32;6.57;;;1.60;;
68273;SDS011;55104;47.356;19.448;2023-07-20T09:27:36;6.28;;;1.63;;
68273;SDS011;55104;47.356;19.448;2023-07-20T09:30:39;7.40;;;1.70;;
68273;SDS011;55104;47.356;19.448;2023-07-20T09:33:41;7.70;;;1.67;;
68273;SDS011;55104;47.356;19.448;2023-07-20T09:37:02;6.17;;;1.77;;
68273;SDS011;55104;47.356;19.448;2023-07-20T09:40:06;7.50;;;1.73;;
68273;SDS011;55104;47.356;19.448;2023-07-20T09:43:15;5.78;;;1.73;;
68273;SDS011;55104;47.356;19.448;2023-07-20T09:46:20;5.57;;;1.88;;
68273;SDS011;55104;47.356;19.448;2023-07-20T09:49:26;7.93;;;1.60;;
68273;SDS011;55104;47.356;19.448;2023-07-20T09:52:31;4.60;;;1.40;;
68273;SDS011;55104;47.356;19.448;2023-07-20T09:55:36;5.95;;;1.52;;
68273;SDS011;55104;47.356;19.448;2023-07-20T09:58:39;5.55;;;1.42;;
68273;SDS011;55104;47.356;19.448;2023-07-20T10:01:42;4.95;;;1.55;;
68273;SDS011;55104;47.356;19.448;2023-07-20T10:04:47;4.57;;;1.47;;
68273;SDS011;55104;47.356;19.448;2023-07-20T10:07:53;4.53;;;1.40;;
68273;SDS011;55104;47.356;19.448;2023-07-20T10:11:16;4.82;;;1.40;;
68273;SDS011;55104;47.356;19.448;2023-07-20T10:14:22;4.88;;;1.35;;
68273;SDS011;55104;47.356;19.448;2023-07-20T10:17:25;4.63;;;1.50;;
68273;SDS011;55104;47.356;19.448;2023-07-20T10:20:28;5.20;;;1.63;;
68273;SDS011;55104;47.356;19.448;2023-07-20T10:23:33;6.77;;;2.00;;
68273;SDS011;55104;47.356;19.448;2023-07-20T10:26:36;5.22;;;1.58;;
68273;SDS011;55104;47.356;19.448;2023-07-20T10:29:42;6.20;;;1.70;;
68273;SDS011;55104;47.356;19.448;2023-07-20T10:32:46;6.25;;;1.58;;
68273;SDS011;55104;47.356;19.448;2023-07-20T10:35:50;4.07;;;1.20;;
68273;SDS011;55104;47.356;19.448;2023-07-20T10:38:57;7.53;;;1.60;;
68273;SDS011;55104;47.356;19.448;2023-07-20T10:42:00;6.03;;;1.80;;
68273;SDS011;55104;47.356;19.448;2023-07-20T10:45:03;5.68;;;1.65;;
68273;SDS011;55104;47.356;19.448;2023-07-20T10:48:06;5.80;;;1.73;;
68273;SDS011;55104;47.356;19.448;2023-07-20T10:51:20;5.13;;;1.47;;
68273;SDS011;55104;47.356;19.448;2023-07-20T10:57:31;4.65;;;1.40;;
68273;SDS011;55104;47.356;19.448;2023-07-20T11:00:33;3.92;;;1.17;;
68273;SDS011;55104;47.356;19.448;2023-07-20T11:03:37;6.55;;;1.75;;
68273;SDS011;55104;47.356;19.448;2023-07-20T11:06:42;5.77;;;1.80;;
68273;SDS011;55104;47.356;19.448;2023-07-20T11:09:45;4.83;;;1.90;;
68273;SDS011;55104;47.356;19.448;2023-07-20T11:16:18;7.30;;;2.95;;
68273;SDS011;55104;47.356;19.448;2023-07-20T11:19:22;6.30;;;2.13;;
68273;SDS011;55104;47.356;19.448;2023-07-20T11:22:30;5.10;;;1.50;;
68273;SDS011;55104;47.356;19.448;2023-07-20T11:25:39;6.63;;;1.40;;
68273;SDS011;55104;47.356;19.448;2023-07-20T11:28:42;6.40;;;1.55;;
68273;SDS011;55104;47.356;19.448;2023-07-20T11:31:44;5.38;;;1.75;;
68273;SDS011;55104;47.356;19.448;2023-07-20T11:34:50;5.97;;;1.58;;
68273;SDS011;55104;47.356;19.448;2023-07-20T11:37:52;6.30;;;1.50;;
68273;SDS011;55104;47.356;19.448;2023-07-20T11:40:55;6.03;;;2.10;;
68273;SDS011;55104;47.356;19.448;2023-07-20T11:43:57;4.93;;;1.75;;
68273;SDS011;55104;47.356;19.448;2023-07-20T11:47:00;6.57;;;1.40;;
68273;SDS011;55104;47.356;19.448;2023-07-20T11:50:06;4.90;;;1.77;;
68273;SDS011;55104;47.356;19.448;2023-07-20T11:53:08;4.67;;;1.57;;
68273;SDS011;55104;47.356;19.448;2023-07-20T11:56:11;4.47;;;1.50;;
68273;SDS011;55104;47.356;19.448;2023-07-20T11:59:18;4.10;;;1.23;;
68273;SDS011;55104;47.356;19.448;2023-07-20T12:02:20;4.45;;;1.33;;
68273;SDS011;55104;47.356;19.448;2023-07-20T12:05:22;3.95;;;1.20;;
68273;SDS011;55104;47.356;19.448;2023-07-20T12:08:25;6.67;;;1.80;;
68273;SDS011;55104;47.356;19.448;2023-07-20T12:11:31;3.93;;;1.20;;
68273;SDS011;55104;47.356;19.448;2023-07-20T12:14:34;5.78;;;1.85;;
68273;SDS011;55104;47.356;19.448;2023-07-20T12:17:41;5.38;;;1.50;;
68273;SDS011;55104;47.356;19.448;2023-07-20T12:20:44;5.72;;;1.52;;
68273;SDS011;55104;47.356;19.448;2023-07-20T12:23:46;4.73;;;1.23;;
68273;SDS011;55104;47.356;19.448;2023-07-20T12:26:48;5.10;;;1.20;;
68273;SDS011;55104;47.356;19.448;2023-07-20T12:29:59;3.92;;;1.17;;
68273;SDS011;55104;47.356;19.448;2023-07-20T12:33:02;4.63;;;1.33;;
68273;SDS011;55104;47.356;19.448;2023-07-20T12:36:04;4.90;;;1.20;;
68273;SDS011;55104;47.356;19.448;2023-07-20T12:39:07;7.17;;;1.43;;
68273;SDS011;55104;47.356;19.448;2023-07-20T12:42:09;4.13;;;1.53;;
68273;SDS011;55104;47.356;19.448;2023-07-20T12:45:11;8.20;;;1.40;;
68273;SDS011;55104;47.356;19.448;2023-07-20T12:48:13;8.23;;;1.40;;
68273;SDS011;55104;47.356;19.448;2023-07-20T12:51:15;5.70;;;1.27;;
68273;SDS011;55104;47.356;19.448;2023-07-20T12:54:20;5.33;;;1.30;;
68273;SDS011;55104;47.356;19.448;2023-07-20T12:57:22;7.17;;;1.30;;
68273;SDS011;55104;47.356;19.448;2023-07-20T13:00:24;8.15;;;1.70;;
68273;SDS011;55104;47.356;19.448;2023-07-20T13:03:26;4.05;;;1.33;;
68273;SDS011;55104;47.356;19.448;2023-07-20T13:06:32;7.00;;;1.70;;
68273;SDS011;55104;47.356;19.448;2023-07-20T13:09:38;7.80;;;1.50;;
68273;SDS011;55104;47.356;19.448;2023-07-20T13:12:40;5.13;;;1.50;;
68273;SDS011;55104;47.356;19.448;2023-07-20T13:15:43;5.28;;;1.50;;
68273;SDS011;55104;47.356;19.448;2023-07-20T13:18:46;6.32;;;1.50;;
68273;SDS011;55104;47.356;19.448;2023-07-20T13:21:48;5.00;;;1.40;;
68273;SDS011;55104;47.356;19.448;2023-07-20T13:24:50;3.77;;;1.20;;
68273;SDS011;55104;47.356;19.448;2023-07-20T13:27:52;4.03;;;1.20;;
68273;SDS011;55104;47.356;19.448;2023-07-20T13:30:54;4.88;;;1.17;;
68273;SDS011;55104;47.356;19.448;2023-07-20T13:33:57;5.13;;;1.55;;
68273;SDS011;55104;47.356;19.448;2023-07-20T13:37:01;4.80;;;1.20;;
68273;SDS011;55104;47.356;19.448;2023-07-20T13:40:04;4.47;;;1.10;;
68273;SDS011;55104;47.356;19.448;2023-07-20T13:43:08;4.23;;;1.37;;
68273;SDS011;55104;47.356;19.448;2023-07-20T13:46:13;4.18;;;1.15;;
68273;SDS011;55104;47.356;19.448;2023-07-20T13:49:17;4.50;;;1.27;;
68273;SDS011;55104;47.356;19.448;2023-07-20T13:52:24;9.02;;;1.45;;
68273;SDS011;55104;47.356;19.448;2023-07-20T13:55:29;5.23;;;1.40;;
68273;SDS011;55104;47.356;19.448;2023-07-20T13:58:35;3.27;;;1.20;;
68273;SDS011;55104;47.356;19.448;2023-07-20T14:01:41;6.28;;;1.20;;
68273;SDS011;55104;47.356;19.448;2023-07-20T14:04:43;4.80;;;1.52;;
68273;SDS011;55104;47.356;19.448;2023-07-20T14:07:47;5.45;;;1.25;;
68273;SDS011;55104;47.356;19.448;2023-07-20T14:10:49;5.10;;;1.40;;
68273;SDS011;55104;47.356;19.448;2023-07-20T14:13:54;7.13;;;1.53;;
68273;SDS011;55104;47.356;19.448;2023-07-20T14:16:56;4.95;;;1.33;;
68273;SDS011;55104;47.356;19.448;2023-07-20T14:19:58;4.68;;;1.23;;
68273;SDS011;55104;47.356;19.448;2023-07-20T14:23:00;4.00;;;1.20;;
68273;SDS011;55104;47.356;19.448;2023-07-20T14:26:02;6.30;;;1.37;;
68273;SDS011;55104;47.356;19.448;2023-07-20T14:29:11;6.50;;;1.37;;
68273;SDS011;55104;47.356;19.448;2023-07-20T14:32:13;5.10;;;1.30;;
68273;SDS011;55104;47.356;19.448;2023-07-20T14:35:16;4.18;;;1.20;;
68273;SDS011;55104;47.356;19.448;2023-07-20T14:38:19;4.93;;;1.60;;
68273;SDS011;55104;47.356;19.448;2023-07-20T14:41:21;5.27;;;1.23;;
68273;SDS011;55104;47.356;19.448;2023-07-20T14:44:25;4.60;;;1.40;;
68273;SDS011;55104;47.356;19.448;2023-07-20T14:47:27;4.97;;;1.63;;
68273;SDS011;55104;47.356;19.448;2023-07-20T14:50:29;5.22;;;1.35;;
68273;SDS011;55104;47.356;19.448;2023-07-20T14:53:31;4.68;;;1.50;;
68273;SDS011;55104;47.356;19.448;2023-07-20T14:56:38;4.23;;;1.30;;
68273;SDS011;55104;47.356;19.448;2023-07-20T14:59:40;4.37;;;1.20;;
68273;SDS011;55104;47.356;19.448;2023-07-20T15:02:43;5.10;;;1.42;;
68273;SDS011;55104;47.356;19.448;2023-07-20T15:05:46;3.85;;;1.08;;
68273;SDS011;55104;47.356;19.448;2023-07-20T15:08:48;4.97;;;1.48;;
68273;SDS011;55104;47.356;19.448;2023-07-20T15:11:50;4.20;;;1.20;;
68273;SDS011;55104;47.356;19.448;2023-07-20T15:15:02;4.87;;;1.50;;
68273;SDS011;55104;47.356;19.448;2023-07-20T15:18:14;4.80;;;1.20;;
68273;SDS011;55104;47.356;19.448;2023-07-20T15:21:16;4.80;;;1.23;;
68273;SDS011;55104;47.356;19.448;2023-07-20T15:24:18;4.75;;;1.08;;
68273;SDS011;55104;47.356;19.448;2023-07-20T15:27:21;5.47;;;1.50;;
68273;SDS011;55104;47.356;19.448;2023-07-20T15:30:23;5.67;;;1.50;;
68273;SDS011;55104;47.356;19.448;2023-07-20T15:33:28;4.05;;;1.30;;
68273;SDS011;55104;47.356;19.448;2023-07-20T15:36:30;5.45;;;1.30;;
68273;SDS011;55104;47.356;19.448;2023-07-20T15:39:35;4.55;;;1.23;;
68273;SDS011;55104;47.356;19.448;2023-07-20T15:42:37;4.33;;;1.17;;
68273;SDS011;55104;47.356;19.448;2023-07-20T15:45:40;3.83;;;1.30;;
68273;SDS011;55104;47.356;19.448;2023-07-20T15:48:44;3.53;;;1.10;;
68273;SDS011;55104;47.356;19.448;2023-07-20T15:51:47;4.85;;;1.15;;
68273;SDS011;55104;47.356;19.448;2023-07-20T15:54:50;4.68;;;1.50;;
68273;SDS011;55104;47.356;19.448;2023-07-20T15:57:56;4.07;;;1.23;;
68273;SDS011;55104;47.356;19.448;2023-07-20T16:00:59;3.50;;;1.20;;
68273;SDS011;55104;47.356;19.448;2023-07-20T16:04:04;4.00;;;1.10;;
68273;SDS011;55104;47.356;19.448;2023-07-20T16:07:07;4.93;;;1.20;;
68273;SDS011;55104;47.356;19.448;2023-07-20T16:10:09;3.90;;;1.17;;
68273;SDS011;55104;47.356;19.448;2023-07-20T16:13:12;3.90;;;1.20;;
68273;SDS011;55104;47.356;19.448;2023-07-20T16:16:14;3.60;;;1.20;;
68273;SDS011;55104;47.356;19.448;2023-07-20T16:19:16;5.07;;;1.30;;
68273;SDS011;55104;47.356;19.448;2023-07-20T16:22:19;3.83;;;1.08;;
68273;SDS011;55104;47.356;19.448;2023-07-20T16:25:21;10.63;;;1.38;;
68273;SDS011;55104;47.356;19.448;2023-07-20T16:28:23;3.50;;;1.00;;
68273;SDS011;55104;47.356;19.448;2023-07-20T16:31:26;4.50;;;0.90;;
68273;SDS011;55104;47.356;19.448;2023-07-20T16:34:29;4.55;;;1.40;;
68273;SDS011;55104;47.356;19.448;2023-07-20T16:37:48;3.58;;;1.10;;
68273;SDS011;55104;47.356;19.448;2023-07-20T16:41:11;3.35;;;1.10;;
68273;SDS011;55104;47.356;19.448;2023-07-20T16:44:13;3.67;;;1.10;;
68273;SDS011;55104;47.356;19.448;2023-07-20T16:47:15;3.90;;;1.20;;
68273;SDS011;55104;47.356;19.448;2023-07-20T16:50:18;7.93;;;1.42;;
68273;SDS011;55104;47.356;19.448;2023-07-20T16:53:20;4.47;;;1.30;;
68273;SDS011;55104;47.356;19.448;2023-07-20T16:56:22;5.80;;;1.20;;
68273;SDS011;55104;47.356;19.448;2023-07-20T16:59:24;3.47;;;1.10;;
68273;SDS011;55104;47.356;19.448;2023-07-20T17:02:26;5.17;;;1.30;;
68273;SDS011;55104;47.356;19.448;2023-07-20T17:05:29;5.65;;;1.60;;
68273;SDS011;55104;47.356;19.448;2023-07-20T17:08:31;4.88;;;1.33;;
68273;SDS011;55104;47.356;19.448;2023-07-20T17:11:33;4.68;;;1.75;;
68273;SDS011;55104;47.356;19.448;2023-07-20T17:14:36;4.17;;;1.40;;
68273;SDS011;55104;47.356;19.448;2023-07-20T17:17:40;4.00;;;1.20;;
68273;SDS011;55104;47.356;19.448;2023-07-20T17:20:44;6.03;;;1.30;;
68273;SDS011;55104;47.356;19.448;2023-07-20T17:23:51;6.20;;;1.40;;
68273;SDS011;55104;47.356;19.448;2023-07-20T17:26:58;6.53;;;1.70;;
68273;SDS011;55104;47.356;19.448;2023-07-20T17:30:06;4.17;;;1.20;;
68273;SDS011;55104;47.356;19.448;2023-07-20T17:33:12;5.50;;;1.20;;
68273;SDS011;55104;47.356;19.448;2023-07-20T17:36:17;6.85;;;1.23;;
68273;SDS011;55104;47.356;19.448;2023-07-20T17:39:22;5.97;;;1.77;;
68273;SDS011;55104;47.356;19.448;2023-07-20T17:42:45;6.32;;;1.42;;
68273;SDS011;55104;47.356;19.448;2023-07-20T17:45:51;4.50;;;1.57;;
68273;SDS011;55104;47.356;19.448;2023-07-20T17:48:55;4.47;;;1.63;;
68273;SDS011;55104;47.356;19.448;2023-07-20T17:51:57;9.27;;;1.50;;
68273;SDS011;55104;47.356;19.448;2023-07-20T17:55:00;4.00;;;1.30;;
68273;SDS011;55104;47.356;19.448;2023-07-20T17:58:02;5.63;;;1.20;;
68273;SDS011;55104;47.356;19.448;2023-07-20T18:01:07;5.30;;;1.70;;
68273;SDS011;55104;47.356;19.448;2023-07-20T18:04:10;5.77;;;1.57;;
68273;SDS011;55104;47.356;19.448;2023-07-20T18:07:12;6.50;;;1.70;;
68273;SDS011;55104;47.356;19.448;2023-07-20T18:10:14;6.45;;;1.63;;
68273;SDS011;55104;47.356;19.448;2023-07-20T18:13:16;4.40;;;1.30;;
68273;SDS011;55104;47.356;19.448;2023-07-20T18:16:19;3.80;;;1.13;;
68273;SDS011;55104;47.356;19.448;2023-07-20T18:19:21;6.70;;;1.77;;
68273;SDS011;55104;47.356;19.448;2023-07-20T18:22:23;6.35;;;1.38;;
68273;SDS011;55104;47.356;19.448;2023-07-20T18:25:26;5.00;;;1.38;;